sensor_id;sensor_type;location;lat;lon;timestamp;P1;P2;P0
77239;PMS7003;66258;53.170;-2.240;2023-11-21T00:01:36;3445.67;3445.67;3445.67
77239;PMS7003;66258;53.170;-2.240;2023-11-21T00:04:04;3446.25;3446.25;3446.25
77239;PMS7003;66258;53.170;-2.240;2023-11-21T00:06:32;3448.20;3448.20;3448.20
77239;PMS7003;66258;53.170;-2.240;2023-11-21T00:08:59;3464.00;3464.00;3464.00
77239;PMS7003;66258;53.170;-2.240;2023-11-21T00:11:28;3460.80;3460.80;3460.80
77239;PMS7003;66258;53.170;-2.240;2023-11-21T00:13:55;3494.75;3494.75;3494.75
77239;PMS7003;66258;53.170;-2.240;2023-11-21T00:16:23;3469.20;3469.20;3469.20
77239;PMS7003;66258;53.170;-2.240;2023-11-21T00:18:51;3462.25;3462.25;3462.25
77239;PMS7003;66258;53.170;-2.240;2023-11-21T00:21:19;3471.25;3471.25;3471.25
77239;PMS7003;66258;53.170;-2.240;2023-11-21T00:23:46;3453.25;3453.25;3453.25
77239;PMS7003;66258;53.170;-2.240;2023-11-21T00:26:19;3464.67;3464.67;3464.67
77239;PMS7003;66258;53.170;-2.240;2023-11-21T00:28:49;3460.50;3460.50;3460.50
77239;PMS7003;66258;53.170;-2.240;2023-11-21T00:31:17;3507.25;3507.25;3507.25
77239;PMS7003;66258;53.170;-2.240;2023-11-21T00:33:44;3469.25;3469.25;3469.25
77239;PMS7003;66258;53.170;-2.240;2023-11-21T00:36:14;3491.25;3491.25;3491.25
77239;PMS7003;66258;53.170;-2.240;2023-11-21T00:38:42;3474.80;3474.80;3474.80
77239;PMS7003;66258;53.170;-2.240;2023-11-21T00:41:10;3484.20;3484.20;3484.20
77239;PMS7003;66258;53.170;-2.240;2023-11-21T00:43:37;3464.00;3464.00;3464.00
77239;PMS7003;66258;53.170;-2.240;2023-11-21T00:46:06;3476.20;3476.20;3476.20
77239;PMS7003;66258;53.170;-2.240;2023-11-21T00:48:34;3474.00;3474.00;3474.00
77239;PMS7003;66258;53.170;-2.240;2023-11-21T00:51:01;3474.50;3474.50;3474.50
77239;PMS7003;66258;53.170;-2.240;2023-11-21T00:53:29;3487.75;3487.75;3487.75
77239;PMS7003;66258;53.170;-2.240;2023-11-21T00:55:57;3487.50;3487.50;3487.50
77239;PMS7003;66258;53.170;-2.240;2023-11-21T00:58:25;3542.00;3542.00;3542.00
77239;PMS7003;66258;53.170;-2.240;2023-11-21T01:00:53;3476.25;3476.25;3476.25
77239;PMS7003;66258;53.170;-2.240;2023-11-21T01:03:22;3482.25;3482.25;3482.25
77239;PMS7003;66258;53.170;-2.240;2023-11-21T01:05:49;3060.75;3053.50;3048.75
77239;PMS7003;66258;53.170;-2.240;2023-11-21T01:08:16;3495.40;3495.40;3495.40
77239;PMS7003;66258;53.170;-2.240;2023-11-21T01:10:44;3484.00;3484.00;3484.00
77239;PMS7003;66258;53.170;-2.240;2023-11-21T01:13:11;3498.25;3498.25;3498.25
77239;PMS7003;66258;53.170;-2.240;2023-11-21T01:15:39;3478.50;3478.50;3478.50
77239;PMS7003;66258;53.170;-2.240;2023-11-21T01:18:07;3517.33;3517.33;3517.33
77239;PMS7003;66258;53.170;-2.240;2023-11-21T01:20:41;3487.50;3487.50;3487.50
77239;PMS7003;66258;53.170;-2.240;2023-11-21T01:23:09;3140.50;3132.50;3128.50
77239;PMS7003;66258;53.170;-2.240;2023-11-21T01:25:37;3307.50;3305.50;3304.50
77239;PMS7003;66258;53.170;-2.240;2023-11-21T01:28:05;3476.25;3476.25;3476.25
77239;PMS7003;66258;53.170;-2.240;2023-11-21T01:30:32;3500.00;3500.00;3500.00
77239;PMS7003;66258;53.170;-2.240;2023-11-21T01:33:00;3534.50;3534.50;3534.50
77239;PMS7003;66258;53.170;-2.240;2023-11-21T01:35:31;3525.50;3525.50;3525.50
77239;PMS7003;66258;53.170;-2.240;2023-11-21T01:38:02;3505.75;3505.75;3505.75
77239;PMS7003;66258;53.170;-2.240;2023-11-21T01:40:30;2584.00;2572.33;2569.00
77239;PMS7003;66258;53.170;-2.240;2023-11-21T01:42:57;3494.75;3494.75;3494.75
77239;PMS7003;66258;53.170;-2.240;2023-11-21T01:45:25;3505.25;3505.25;3505.25
77239;PMS7003;66258;53.170;-2.240;2023-11-21T01:47:52;3487.00;3487.00;3487.00
77239;PMS7003;66258;53.170;-2.240;2023-11-21T01:50:22;3498.25;3498.25;3498.25
77239;PMS7003;66258;53.170;-2.240;2023-11-21T01:52:50;3489.50;3489.50;3489.50
77239;PMS7003;66258;53.170;-2.240;2023-11-21T01:55:19;3408.50;3408.50;3408.25
77239;PMS7003;66258;53.170;-2.240;2023-11-21T01:57:54;3245.25;3240.75;3239.25
77239;PMS7003;66258;53.170;-2.240;2023-11-21T02:00:22;3499.75;3499.75;3499.75
77239;PMS7003;66258;53.170;-2.240;2023-11-21T02:02:49;3493.67;3493.67;3493.67
77239;PMS7003;66258;53.170;-2.240;2023-11-21T02:05:17;3483.67;3483.67;3483.67
77239;PMS7003;66258;53.170;-2.240;2023-11-21T02:07:46;3503.00;3503.00;3503.00
77239;PMS7003;66258;53.170;-2.240;2023-11-21T02:10:14;3358.75;3356.25;3353.75
77239;PMS7003;66258;53.170;-2.240;2023-11-21T02:12:43;3534.50;3534.50;3534.50
77239;PMS7003;66258;53.170;-2.240;2023-11-21T02:15:11;3491.25;3491.25;3491.25
77239;PMS7003;66258;53.170;-2.240;2023-11-21T02:17:40;3503.80;3503.80;3503.80
77239;PMS7003;66258;53.170;-2.240;2023-11-21T02:20:08;3494.50;3494.50;3494.50
77239;PMS7003;66258;53.170;-2.240;2023-11-21T02:22:36;3474.80;3474.80;3474.80
77239;PMS7003;66258;53.170;-2.240;2023-11-21T02:25:08;3508.00;3508.00;3508.00
77239;PMS7003;66258;53.170;-2.240;2023-11-21T02:27:38;3509.40;3509.40;3509.40
77239;PMS7003;66258;53.170;-2.240;2023-11-21T02:30:06;3494.75;3494.75;3494.75
77239;PMS7003;66258;53.170;-2.240;2023-11-21T02:32:35;3509.00;3509.00;3509.00
77239;PMS7003;66258;53.170;-2.240;2023-11-21T02:35:14;3536.50;3536.50;3536.50
77239;PMS7003;66258;53.170;-2.240;2023-11-21T02:37:42;3542.50;3542.50;3542.50
77239;PMS7003;66258;53.170;-2.240;2023-11-21T02:40:11;3480.00;3480.00;3480.00
77239;PMS7003;66258;53.170;-2.240;2023-11-21T02:42:39;3538.75;3538.75;3538.75
77239;PMS7003;66258;53.170;-2.240;2023-11-21T02:45:07;3566.50;3566.50;3566.50
77239;PMS7003;66258;53.170;-2.240;2023-11-21T02:47:35;3477.80;3477.80;3477.80
77239;PMS7003;66258;53.170;-2.240;2023-11-21T02:50:03;3496.50;3496.50;3496.50
77239;PMS7003;66258;53.170;-2.240;2023-11-21T02:52:31;3480.00;3480.00;3480.00
77239;PMS7003;66258;53.170;-2.240;2023-11-21T02:54:58;3476.25;3476.25;3476.25
77239;PMS7003;66258;53.170;-2.240;2023-11-21T02:57:27;3484.00;3484.00;3484.00
77239;PMS7003;66258;53.170;-2.240;2023-11-21T02:59:55;3491.00;3491.00;3491.00
77239;PMS7003;66258;53.170;-2.240;2023-11-21T03:02:22;3492.75;3492.75;3492.75
77239;PMS7003;66258;53.170;-2.240;2023-11-21T03:04:50;3484.20;3484.20;3484.20
77239;PMS7003;66258;53.170;-2.240;2023-11-21T03:07:18;3514.25;3514.25;3514.25
77239;PMS7003;66258;53.170;-2.240;2023-11-21T03:09:45;3486.80;3486.80;3486.80
77239;PMS7003;66258;53.170;-2.240;2023-11-21T03:12:16;3555.50;3555.50;3555.50
77239;PMS7003;66258;53.170;-2.240;2023-11-21T03:14:45;3491.25;3491.25;3491.25
77239;PMS7003;66258;53.170;-2.240;2023-11-21T03:17:13;3501.75;3501.75;3501.75
77239;PMS7003;66258;53.170;-2.240;2023-11-21T03:19:41;3493.00;3493.00;3493.00
77239;PMS7003;66258;53.170;-2.240;2023-11-21T03:22:09;3493.00;3493.00;3493.00
77239;PMS7003;66258;53.170;-2.240;2023-11-21T03:24:37;3535.00;3535.00;3535.00
77239;PMS7003;66258;53.170;-2.240;2023-11-21T03:27:04;3557.50;3557.50;3557.50
77239;PMS7003;66258;53.170;-2.240;2023-11-21T03:29:32;3491.25;3491.25;3491.25
77239;PMS7003;66258;53.170;-2.240;2023-11-21T03:32:01;3496.50;3496.50;3496.50
77239;PMS7003;66258;53.170;-2.240;2023-11-21T03:34:29;3162.50;3153.75;3149.50
77239;PMS7003;66258;53.170;-2.240;2023-11-21T03:36:57;3493.00;3493.00;3493.00
77239;PMS7003;66258;53.170;-2.240;2023-11-21T03:39:25;3498.25;3498.25;3498.25
77239;PMS7003;66258;53.170;-2.240;2023-11-21T03:41:53;3514.00;3514.00;3514.00
77239;PMS7003;66258;53.170;-2.240;2023-11-21T03:44:20;3496.80;3496.80;3496.80
77239;PMS7003;66258;53.170;-2.240;2023-11-21T03:46:48;3509.00;3509.00;3509.00
77239;PMS7003;66258;53.170;-2.240;2023-11-21T03:49:17;3500.00;3500.00;3500.00
77239;PMS7003;66258;53.170;-2.240;2023-11-21T03:51:45;3521.75;3521.75;3521.75
77239;PMS7003;66258;53.170;-2.240;2023-11-21T03:54:13;3505.40;3505.40;3505.40
77239;PMS7003;66258;53.170;-2.240;2023-11-21T03:56:40;3503.50;3503.50;3503.50
77239;PMS7003;66258;53.170;-2.240;2023-11-21T03:59:09;3505.25;3505.25;3505.25
77239;PMS7003;66258;53.170;-2.240;2023-11-21T04:01:37;3545.75;3545.75;3545.75
77239;PMS7003;66258;53.170;-2.240;2023-11-21T04:04:07;3538.25;3538.25;3538.25
77239;PMS7003;66258;53.170;-2.240;2023-11-21T04:06:36;3522.25;3522.25;3522.25
77239;PMS7003;66258;53.170;-2.240;2023-11-21T04:09:04;3520.25;3520.25;3520.25
77239;PMS7003;66258;53.170;-2.240;2023-11-21T04:11:31;3505.25;3505.25;3505.25
77239;PMS7003;66258;53.170;-2.240;2023-11-21T04:13:59;3494.20;3494.20;3494.20
77239;PMS7003;66258;53.170;-2.240;2023-11-21T04:16:27;3211.50;3206.00;3202.00
77239;PMS7003;66258;53.170;-2.240;2023-11-21T04:18:54;3166.25;3161.25;3156.00
77239;PMS7003;66258;53.170;-2.240;2023-11-21T04:21:22;3512.75;3512.75;3512.75
77239;PMS7003;66258;53.170;-2.240;2023-11-21T04:23:51;3510.50;3510.50;3510.50
77239;PMS7003;66258;53.170;-2.240;2023-11-21T04:26:18;3540.75;3540.75;3540.75
77239;PMS7003;66258;53.170;-2.240;2023-11-21T04:28:46;3178.20;3167.40;3164.40
77239;PMS7003;66258;53.170;-2.240;2023-11-21T04:31:13;3550.00;3550.00;3550.00
77239;PMS7003;66258;53.170;-2.240;2023-11-21T04:33:40;3540.50;3540.50;3540.50
77239;PMS7003;66258;53.170;-2.240;2023-11-21T04:36:09;3511.25;3511.25;3511.25
77239;PMS7003;66258;53.170;-2.240;2023-11-21T04:38:36;3193.50;3186.75;3180.75
77239;PMS7003;66258;53.170;-2.240;2023-11-21T04:41:06;3534.50;3534.50;3534.50
77239;PMS7003;66258;53.170;-2.240;2023-11-21T04:43:34;3363.00;3362.00;3360.00
77239;PMS7003;66258;53.170;-2.240;2023-11-21T04:46:02;3197.50;3196.50;3195.50
77239;PMS7003;66258;53.170;-2.240;2023-11-21T04:48:29;3301.50;3298.75;3295.00
77239;PMS7003;66258;53.170;-2.240;2023-11-21T04:50:57;3188.00;3183.00;3176.20
77239;PMS7003;66258;53.170;-2.240;2023-11-21T04:53:25;3594.75;3594.75;3594.75
77239;PMS7003;66258;53.170;-2.240;2023-11-21T04:55:58;3549.50;3549.50;3549.50
77239;PMS7003;66258;53.170;-2.240;2023-11-21T04:58:28;3512.50;3512.50;3512.50
77239;PMS7003;66258;53.170;-2.240;2023-11-21T05:00:56;3529.00;3529.00;3529.00
77239;PMS7003;66258;53.170;-2.240;2023-11-21T05:03:24;3540.00;3540.00;3540.00
77239;PMS7003;66258;53.170;-2.240;2023-11-21T05:05:51;3515.80;3515.80;3515.80
77239;PMS7003;66258;53.170;-2.240;2023-11-21T05:08:19;3502.40;3502.40;3502.40
77239;PMS7003;66258;53.170;-2.240;2023-11-21T05:10:47;3522.25;3522.25;3522.25
77239;PMS7003;66258;53.170;-2.240;2023-11-21T05:13:18;3532.75;3532.75;3532.75
77239;PMS7003;66258;53.170;-2.240;2023-11-21T05:15:47;3522.25;3522.25;3522.25
77239;PMS7003;66258;53.170;-2.240;2023-11-21T05:18:15;3533.00;3533.00;3533.00
77239;PMS7003;66258;53.170;-2.240;2023-11-21T05:20:42;3527.50;3527.50;3527.50
77239;PMS7003;66258;53.170;-2.240;2023-11-21T05:23:10;3564.50;3564.50;3564.50
77239;PMS7003;66258;53.170;-2.240;2023-11-21T05:25:44;3538.25;3538.25;3538.25
77239;PMS7003;66258;53.170;-2.240;2023-11-21T05:28:13;3544.25;3544.25;3544.25
77239;PMS7003;66258;53.170;-2.240;2023-11-21T05:30:46;3542.00;3542.00;3542.00
77239;PMS7003;66258;53.170;-2.240;2023-11-21T05:33:13;3534.60;3534.60;3534.60
77239;PMS7003;66258;53.170;-2.240;2023-11-21T05:35:42;3183.25;3183.25;3179.25
77239;PMS7003;66258;53.170;-2.240;2023-11-21T05:38:10;3557.40;3557.40;3557.40
77239;PMS7003;66258;53.170;-2.240;2023-11-21T05:40:37;3548.00;3548.00;3548.00
77239;PMS7003;66258;53.170;-2.240;2023-11-21T05:43:08;3389.75;3387.25;3383.75
77239;PMS7003;66258;53.170;-2.240;2023-11-21T05:45:35;3520.40;3520.40;3520.40
77239;PMS7003;66258;53.170;-2.240;2023-11-21T05:48:05;3524.00;3524.00;3524.00
77239;PMS7003;66258;53.170;-2.240;2023-11-21T05:50:33;3581.50;3581.50;3581.50
77239;PMS7003;66258;53.170;-2.240;2023-11-21T05:53:00;3214.75;3209.00;3207.00
77239;PMS7003;66258;53.170;-2.240;2023-11-21T05:55:28;3551.50;3551.50;3551.50
77239;PMS7003;66258;53.170;-2.240;2023-11-21T05:57:56;3544.25;3544.25;3544.25
77239;PMS7003;66258;53.170;-2.240;2023-11-21T06:00:24;3549.50;3549.50;3549.50
77239;PMS7003;66258;53.170;-2.240;2023-11-21T06:02:53;3544.25;3544.25;3544.25
77239;PMS7003;66258;53.170;-2.240;2023-11-21T06:05:23;3549.75;3549.75;3549.75
77239;PMS7003;66258;53.170;-2.240;2023-11-21T06:07:52;3545.75;3545.75;3545.75
77239;PMS7003;66258;53.170;-2.240;2023-11-21T06:10:22;3197.00;3196.00;3190.25
77239;PMS7003;66258;53.170;-2.240;2023-11-21T06:12:51;3559.25;3559.25;3559.25
77239;PMS7003;66258;53.170;-2.240;2023-11-21T06:15:19;3527.50;3527.50;3527.50
77239;PMS7003;66258;53.170;-2.240;2023-11-21T06:17:47;3549.50;3549.50;3549.50
77239;PMS7003;66258;53.170;-2.240;2023-11-21T06:20:15;3534.50;3534.50;3534.50
77239;PMS7003;66258;53.170;-2.240;2023-11-21T06:22:45;3010.50;3007.50;3005.50
77239;PMS7003;66258;53.170;-2.240;2023-11-21T06:25:15;3204.25;3199.50;3197.50
77239;PMS7003;66258;53.170;-2.240;2023-11-21T06:27:43;3545.00;3545.00;3545.00
77239;PMS7003;66258;53.170;-2.240;2023-11-21T06:30:10;3550.00;3550.00;3550.00
77239;PMS7003;66258;53.170;-2.240;2023-11-21T06:32:39;3243.75;3242.75;3240.75
77239;PMS7003;66258;53.170;-2.240;2023-11-21T06:35:07;3596.75;3596.75;3596.75
77239;PMS7003;66258;53.170;-2.240;2023-11-21T06:37:38;3568.50;3568.50;3568.50
77239;PMS7003;66258;53.170;-2.240;2023-11-21T06:40:08;3594.75;3594.75;3594.75
77239;PMS7003;66258;53.170;-2.240;2023-11-21T06:42:38;3460.75;3459.25;3458.75
77239;PMS7003;66258;53.170;-2.240;2023-11-21T06:45:07;3574.00;3574.00;3574.00
77239;PMS7003;66258;53.170;-2.240;2023-11-21T06:47:35;3219.25;3214.25;3212.50
77239;PMS7003;66258;53.170;-2.240;2023-11-21T06:50:03;3592.75;3592.75;3592.75
77239;PMS7003;66258;53.170;-2.240;2023-11-21T06:52:31;3606.75;3606.75;3606.75
77239;PMS7003;66258;53.170;-2.240;2023-11-21T06:54:59;2941.75;2933.50;2930.00
77239;PMS7003;66258;53.170;-2.240;2023-11-21T06:57:30;3604.75;3604.75;3604.75
77239;PMS7003;66258;53.170;-2.240;2023-11-21T06:59:58;3581.50;3581.50;3581.50
77239;PMS7003;66258;53.170;-2.240;2023-11-21T07:02:26;3223.00;3219.00;3214.25
77239;PMS7003;66258;53.170;-2.240;2023-11-21T07:04:54;3544.25;3544.25;3544.25
77239;PMS7003;66258;53.170;-2.240;2023-11-21T07:07:21;3574.50;3574.50;3574.50
77239;PMS7003;66258;53.170;-2.240;2023-11-21T07:09:49;3279.25;3276.00;3269.25
77239;PMS7003;66258;53.170;-2.240;2023-11-21T07:12:17;3446.75;3446.25;3445.75
77239;PMS7003;66258;53.170;-2.240;2023-11-21T07:14:46;3594.75;3594.75;3594.75
77239;PMS7003;66258;53.170;-2.240;2023-11-21T07:17:13;3567.67;3567.67;3567.67
77239;PMS7003;66258;53.170;-2.240;2023-11-21T07:19:42;3277.75;3272.50;3269.50
77239;PMS7003;66258;53.170;-2.240;2023-11-21T07:22:12;3551.00;3551.00;3551.00
77239;PMS7003;66258;53.170;-2.240;2023-11-21T07:24:40;3536.50;3536.50;3536.50
77239;PMS7003;66258;53.170;-2.240;2023-11-21T07:27:09;3534.50;3534.50;3534.50
77239;PMS7003;66258;53.170;-2.240;2023-11-21T07:29:39;3427.50;3425.75;3424.75
77239;PMS7003;66258;53.170;-2.240;2023-11-21T07:32:08;3526.00;3526.00;3526.00
77239;PMS7003;66258;53.170;-2.240;2023-11-21T07:34:36;3514.25;3514.25;3514.25
77239;PMS7003;66258;53.170;-2.240;2023-11-21T07:37:04;3565.00;3565.00;3565.00
77239;PMS7003;66258;53.170;-2.240;2023-11-21T07:39:31;3505.40;3505.40;3505.40
77239;PMS7003;66258;53.170;-2.240;2023-11-21T07:41:59;3534.67;3534.67;3534.67
77239;PMS7003;66258;53.170;-2.240;2023-11-21T07:44:26;3274.50;3271.50;3268.00
77239;PMS7003;66258;53.170;-2.240;2023-11-21T07:46:54;3507.67;3507.67;3507.67
77239;PMS7003;66258;53.170;-2.240;2023-11-21T07:49:26;3503.00;3503.00;3503.00
77239;PMS7003;66258;53.170;-2.240;2023-11-21T07:51:54;3522.67;3522.67;3522.67
77239;PMS7003;66258;53.170;-2.240;2023-11-21T07:54:21;3501.00;3501.00;3501.00
77239;PMS7003;66258;53.170;-2.240;2023-11-21T07:56:49;3501.75;3501.75;3501.75
77239;PMS7003;66258;53.170;-2.240;2023-11-21T07:59:16;3549.50;3549.50;3549.50
77239;PMS7003;66258;53.170;-2.240;2023-11-21T08:01:43;3505.40;3505.40;3505.40
77239;PMS7003;66258;53.170;-2.240;2023-11-21T08:04:14;3166.25;3160.25;3154.25
77239;PMS7003;66258;53.170;-2.240;2023-11-21T08:06:43;3495.40;3495.40;3495.40
77239;PMS7003;66258;53.170;-2.240;2023-11-21T08:09:11;3498.33;3498.33;3498.33
77239;PMS7003;66258;53.170;-2.240;2023-11-21T08:11:38;2804.25;2796.25;2792.00
77239;PMS7003;66258;53.170;-2.240;2023-11-21T08:14:06;3484.20;3484.20;3484.20
77239;PMS7003;66258;53.170;-2.240;2023-11-21T08:16:33;3507.25;3507.25;3507.25
77239;PMS7003;66258;53.170;-2.240;2023-11-21T08:19:01;3500.50;3500.50;3500.50
77239;PMS7003;66258;53.170;-2.240;2023-11-21T08:21:28;3489.25;3489.25;3489.25
77239;PMS7003;66258;53.170;-2.240;2023-11-21T08:23:57;3534.50;3534.50;3534.50
77239;PMS7003;66258;53.170;-2.240;2023-11-21T08:26:25;3187.75;3181.75;3180.75
77239;PMS7003;66258;53.170;-2.240;2023-11-21T08:28:55;3489.25;3489.25;3489.25
77239;PMS7003;66258;53.170;-2.240;2023-11-21T08:31:24;3527.50;3527.50;3527.50
77239;PMS7003;66258;53.170;-2.240;2023-11-21T08:33:52;3507.67;3507.67;3507.67
77239;PMS7003;66258;53.170;-2.240;2023-11-21T08:36:19;3482.25;3482.25;3482.25
77239;PMS7003;66258;53.170;-2.240;2023-11-21T08:38:47;3500.67;3500.67;3500.67
77239;PMS7003;66258;53.170;-2.240;2023-11-21T08:41:16;3503.00;3503.00;3503.00
77239;PMS7003;66258;53.170;-2.240;2023-11-21T08:43:44;3501.75;3501.75;3501.75
77239;PMS7003;66258;53.170;-2.240;2023-11-21T08:46:11;3491.33;3491.33;3491.33
77239;PMS7003;66258;53.170;-2.240;2023-11-21T08:48:38;3532.33;3532.33;3532.33
77239;PMS7003;66258;53.170;-2.240;2023-11-21T08:51:09;3483.67;3483.67;3483.67
77239;PMS7003;66258;53.170;-2.240;2023-11-21T08:53:37;3551.75;3551.75;3551.75
77239;PMS7003;66258;53.170;-2.240;2023-11-21T08:56:05;3494.50;3494.50;3494.50
77239;PMS7003;66258;53.170;-2.240;2023-11-21T08:58:35;3505.25;3505.25;3505.25
77239;PMS7003;66258;53.170;-2.240;2023-11-21T09:01:03;3503.50;3503.50;3503.50
77239;PMS7003;66258;53.170;-2.240;2023-11-21T09:03:32;2794.50;2793.50;2793.50
77239;PMS7003;66258;53.170;-2.240;2023-11-21T09:06:00;3488.67;3488.67;3488.67
77239;PMS7003;66258;53.170;-2.240;2023-11-21T09:08:27;3478.67;3478.67;3478.67
77239;PMS7003;66258;53.170;-2.240;2023-11-21T09:10:55;3478.50;3478.50;3478.50
77239;PMS7003;66258;53.170;-2.240;2023-11-21T09:13:22;3476.25;3476.25;3476.25
77239;PMS7003;66258;53.170;-2.240;2023-11-21T09:15:52;3516.25;3516.25;3516.25
77239;PMS7003;66258;53.170;-2.240;2023-11-21T09:18:19;3476.25;3476.25;3476.25
77239;PMS7003;66258;53.170;-2.240;2023-11-21T09:20:46;3303.25;3303.25;3303.25
77239;PMS7003;66258;53.170;-2.240;2023-11-21T09:23:13;3495.40;3495.40;3495.40
77239;PMS7003;66258;53.170;-2.240;2023-11-21T09:25:41;3498.20;3498.20;3498.20
77239;PMS7003;66258;53.170;-2.240;2023-11-21T09:28:08;3484.00;3484.00;3484.00
77239;PMS7003;66258;53.170;-2.240;2023-11-21T09:30:34;3336.75;3332.25;3330.25
77239;PMS7003;66258;53.170;-2.240;2023-11-21T09:33:03;3469.20;3469.20;3469.20
77239;PMS7003;66258;53.170;-2.240;2023-11-21T09:35:30;3478.50;3478.50;3478.50
77239;PMS7003;66258;53.170;-2.240;2023-11-21T09:37:57;2209.40;2204.00;2158.80
77239;PMS7003;66258;53.170;-2.240;2023-11-21T09:40:24;3219.60;3216.40;3215.60
77239;PMS7003;66258;53.170;-2.240;2023-11-21T09:42:53;3138.00;3136.00;3135.00
77239;PMS7003;66258;53.170;-2.240;2023-11-21T09:45:24;3000.00;2993.00;2991.00
77239;PMS7003;66258;53.170;-2.240;2023-11-21T09:47:53;2817.60;2803.80;2788.60
77239;PMS7003;66258;53.170;-2.240;2023-11-21T09:50:22;3489.50;3489.50;3489.50
77239;PMS7003;66258;53.170;-2.240;2023-11-21T09:52:54;3481.75;3481.75;3481.75
77239;PMS7003;66258;53.170;-2.240;2023-11-21T09:55:25;3482.20;3482.20;3482.20
77239;PMS7003;66258;53.170;-2.240;2023-11-21T09:57:54;3477.80;3477.80;3477.80
77239;PMS7003;66258;53.170;-2.240;2023-11-21T10:00:23;3476.25;3476.25;3476.25
77239;PMS7003;66258;53.170;-2.240;2023-11-21T10:02:50;3488.20;3488.20;3488.20
77239;PMS7003;66258;53.170;-2.240;2023-11-21T10:05:18;3462.20;3462.20;3462.20
77239;PMS7003;66258;53.170;-2.240;2023-11-21T10:07:48;3533.00;3533.00;3533.00
77239;PMS7003;66258;53.170;-2.240;2023-11-21T10:10:18;3476.25;3476.25;3476.25
77239;PMS7003;66258;53.170;-2.240;2023-11-21T10:12:46;3503.50;3503.50;3503.50
77239;PMS7003;66258;53.170;-2.240;2023-11-21T10:15:16;3398.20;3397.40;3396.20
77239;PMS7003;66258;53.170;-2.240;2023-11-21T10:17:45;3409.20;3409.00;3405.80
77239;PMS7003;66258;53.170;-2.240;2023-11-21T10:20:15;3464.00;3464.00;3464.00
77239;PMS7003;66258;53.170;-2.240;2023-11-21T10:22:43;2828.80;2821.40;2814.40
77239;PMS7003;66258;53.170;-2.240;2023-11-21T10:25:12;3400.40;3400.00;3397.60
77239;PMS7003;66258;53.170;-2.240;2023-11-21T10:27:40;3462.20;3462.20;3462.20
77239;PMS7003;66258;53.170;-2.240;2023-11-21T10:30:07;3465.00;3465.00;3465.00
77239;PMS7003;66258;53.170;-2.240;2023-11-21T10:32:35;2946.20;2944.20;2929.00
77239;PMS7003;66258;53.170;-2.240;2023-11-21T10:35:02;2777.00;2774.25;2746.50
77239;PMS7003;66258;53.170;-2.240;2023-11-21T10:37:31;2046.80;2031.40;2004.60
77239;PMS7003;66258;53.170;-2.240;2023-11-21T10:39:59;1850.40;1844.20;1805.40
77239;PMS7003;66258;53.170;-2.240;2023-11-21T10:42:28;1789.00;1781.60;1757.20
77239;PMS7003;66258;53.170;-2.240;2023-11-21T10:44:55;2776.80;2772.80;2757.00
77239;PMS7003;66258;53.170;-2.240;2023-11-21T10:47:22;918.60;915.00;873.40
77239;PMS7003;66258;53.170;-2.240;2023-11-21T10:49:49;1375.20;1371.40;1336.80
77239;PMS7003;66258;53.170;-2.240;2023-11-21T10:52:18;230.80;230.00;195.40
77239;PMS7003;66258;53.170;-2.240;2023-11-21T10:54:46;434.00;432.00;395.75
77239;PMS7003;66258;53.170;-2.240;2023-11-21T10:57:13;167.00;162.75;150.25
77239;PMS7003;66258;53.170;-2.240;2023-11-21T10:59:47;75.75;71.50;59.25
77239;PMS7003;66258;53.170;-2.240;2023-11-21T11:02:17;66.60;56.40;51.60
77239;PMS7003;66258;53.170;-2.240;2023-11-21T11:04:49;51.00;43.00;33.80
77239;PMS7003;66258;53.170;-2.240;2023-11-21T11:07:19;58.00;47.20;40.60
77239;PMS7003;66258;53.170;-2.240;2023-11-21T11:09:47;45.75;40.00;32.00
77239;PMS7003;66258;53.170;-2.240;2023-11-21T11:12:15;48.00;41.25;33.25
77239;PMS7003;66258;53.170;-2.240;2023-11-21T11:14:43;31.40;30.40;25.00
77239;PMS7003;66258;53.170;-2.240;2023-11-21T11:17:11;38.25;35.00;28.75
77239;PMS7003;66258;53.170;-2.240;2023-11-21T11:19:40;1079.75;1067.75;1057.50
77239;PMS7003;66258;53.170;-2.240;2023-11-21T11:22:08;32.50;31.00;26.00
77239;PMS7003;66258;53.170;-2.240;2023-11-21T11:25:00;289.00;288.00;284.50
77239;PMS7003;66258;53.170;-2.240;2023-11-21T11:27:40;13.50;12.25;11.75
77239;PMS7003;66258;53.170;-2.240;2023-11-21T11:30:17;16.75;16.75;15.25
77239;PMS7003;66258;53.170;-2.240;2023-11-21T11:33:01;32.00;31.00;26.50
77239;PMS7003;66258;53.170;-2.240;2023-11-21T11:35:38;34.50;32.25;26.75
77239;PMS7003;66258;53.170;-2.240;2023-11-21T11:38:16;7.00;3.25;2.00
77239;PMS7003;66258;53.170;-2.240;2023-11-21T11:40:45;5.25;5.25;3.50
77239;PMS7003;66258;53.170;-2.240;2023-11-21T11:43:12;19.75;17.75;16.50
77239;PMS7003;66258;53.170;-2.240;2023-11-21T11:45:39;15.50;15.50;14.00
77239;PMS7003;66258;53.170;-2.240;2023-11-21T11:48:10;1.50;1.50;1.00
77239;PMS7003;66258;53.170;-2.240;2023-11-21T11:50:38;19.75;18.00;17.00
77239;PMS7003;66258;53.170;-2.240;2023-11-21T11:53:26;4.25;4.25;3.75
77239;PMS7003;66258;53.170;-2.240;2023-11-21T11:58:50;12.00;10.00;8.00
77239;PMS7003;66258;53.170;-2.240;2023-11-21T12:01:18;12.25;12.25;11.50
77239;PMS7003;66258;53.170;-2.240;2023-11-21T12:03:50;35.25;31.50;27.00
77239;PMS7003;66258;53.170;-2.240;2023-11-21T12:06:55;25.00;25.00;22.00
77239;PMS7003;66258;53.170;-2.240;2023-11-21T12:09:22;2.75;2.75;1.00
77239;PMS7003;66258;53.170;-2.240;2023-11-21T12:11:49;0.25;0.25;0.00
77239;PMS7003;66258;53.170;-2.240;2023-11-21T12:14:17;1.00;0.50;0.00
77239;PMS7003;66258;53.170;-2.240;2023-11-21T12:16:44;1.00;1.00;0.00
77239;PMS7003;66258;53.170;-2.240;2023-11-21T12:19:13;2.75;1.00;0.25
77239;PMS7003;66258;53.170;-2.240;2023-11-21T12:21:40;4.50;2.75;1.50
77239;PMS7003;66258;53.170;-2.240;2023-11-21T12:24:07;3.25;3.25;2.00
77239;PMS7003;66258;53.170;-2.240;2023-11-21T12:26:34;1.75;1.00;0.75
77239;PMS7003;66258;53.170;-2.240;2023-11-21T12:29:01;1.00;1.00;0.75
77239;PMS7003;66258;53.170;-2.240;2023-11-21T12:31:28;1.00;1.00;0.00
77239;PMS7003;66258;53.170;-2.240;2023-11-21T12:33:55;1.00;1.00;0.75
77239;PMS7003;66258;53.170;-2.240;2023-11-21T12:36:24;0.00;0.00;0.00
77239;PMS7003;66258;53.170;-2.240;2023-11-21T12:38:52;0.50;0.50;0.00
77239;PMS7003;66258;53.170;-2.240;2023-11-21T12:41:19;1.25;0.75;0.00
77239;PMS7003;66258;53.170;-2.240;2023-11-21T12:43:46;0.75;0.75;0.25
77239;PMS7003;66258;53.170;-2.240;2023-11-21T12:46:13;2.75;2.75;0.25
77239;PMS7003;66258;53.170;-2.240;2023-11-21T12:48:41;2.00;2.00;0.50
77239;PMS7003;66258;53.170;-2.240;2023-11-21T12:51:08;2.50;2.50;1.75
77239;PMS7003;66258;53.170;-2.240;2023-11-21T12:53:37;3.75;1.75;0.00